Main page
METAR-TAF:

METAR-TAF

Airports :

Elsenborn-Butgenbach Air Base

Bütgenbach, Belgium

latitude: 50-28N, longitude: 006-11E, elevation: 564 m

Current weather observation

The report was made 27 minutes ago, at 22:55 UTC
Wind 6 kt from the East/Southeast
Temperature 10°C
Humidity 53%
Pressure 1003 hPa
Visibility 10 km or more

METAR: EBLB 222255Z AUTO 11006KT 9999 NCD 10/01 Q1003 BLU

Time: 01:22 (23:22 UTC)


TAF: missing

Weather observations and forecasts of more than 4000 airports (METAR and TAF reports).

The available stations are represented by yellow and red dots on the map.

Hover mouse over dot to see the name of the station.

Then click to see weather observations and forecasts.

To change the map : click on the green buttons with a black cross to zoom in, on the green button with a dash to zoom out, or on the green arrows for adjacent maps.


METAR-TAF: